createdAt,value
2018-02-23T00:01:52.352Z,4.20
2018-02-23T00:04:20.532Z,4.20
2018-02-23T00:06:48.601Z,4.20
2018-02-23T00:09:16.776Z,4.20
2018-02-23T00:11:44.955Z,4.20
2018-02-23T00:14:13.129Z,4.10
2018-02-23T00:16:42.633Z,4.10
2018-02-23T00:19:10.567Z,4.10
2018-02-23T00:21:38.561Z,4.10
2018-02-23T00:24:06.630Z,4.10
2018-02-23T00:26:34.706Z,4.10
2018-02-23T00:29:02.880Z,4.10
2018-02-23T00:31:31.048Z,4.10
2018-02-23T00:33:59.118Z,4.10
2018-02-23T00:36:27.306Z,4.10
2018-02-23T00:38:55.875Z,4.10
2018-02-23T00:41:23.946Z,4.00
2018-02-23T00:43:52.124Z,4.00
2018-02-23T00:46:20.292Z,3.90
2018-02-23T00:48:48.376Z,3.90
2018-02-23T00:51:16.650Z,3.80
2018-02-23T00:53:44.816Z,3.60
2018-02-23T00:56:13.000Z,3.50
2018-02-23T00:58:41.159Z,3.30
2018-02-23T01:01:09.339Z,3.20
2018-02-23T01:03:37.409Z,3.00
2018-02-23T01:06:05.581Z,2.80
2018-02-23T01:08:33.754Z,2.70
2018-02-23T01:11:01.930Z,2.60
2018-02-23T01:13:29.999Z,2.50
2018-02-23T01:15:58.991Z,2.40
2018-02-23T01:18:26.961Z,2.30
2018-02-23T01:20:55.033Z,2.30
2018-02-23T01:23:23.208Z,2.20
2018-02-23T01:25:51.169Z,2.10
2018-02-23T01:28:19.348Z,2.10
2018-02-23T01:30:47.531Z,2.00
2018-02-23T01:33:15.608Z,2.00
2018-02-23T01:35:43.593Z,2.00
2018-02-23T01:38:11.732Z,2.00
2018-02-23T01:40:40.635Z,2.00
2018-02-23T01:43:08.807Z,1.90
2018-02-23T01:45:37.082Z,2.00
2018-02-23T01:48:05.253Z,1.90
2018-02-23T01:50:45.300Z,1.90
2018-02-23T01:53:13.327Z,1.90
2018-02-23T01:55:41.449Z,1.90
2018-02-23T01:58:09.615Z,1.80
2018-02-23T02:00:37.796Z,1.90
2018-02-23T02:03:05.963Z,1.80
2018-02-23T02:05:34.144Z,1.80
2018-02-23T02:08:02.320Z,1.80
2018-02-23T02:10:30.273Z,1.80
2018-02-23T02:12:58.455Z,1.80
2018-02-23T02:15:26.522Z,1.80
2018-02-23T02:17:54.602Z,1.80
2018-02-23T02:20:23.378Z,1.80
2018-02-23T02:22:51.657Z,1.80
2018-02-23T02:25:19.840Z,1.80
2018-02-23T02:27:48.005Z,1.80
2018-02-23T02:30:16.187Z,1.80
2018-02-23T02:32:44.367Z,1.80
2018-02-23T02:35:12.526Z,1.80
2018-02-23T02:37:40.706Z,1.80
2018-02-23T02:40:09.589Z,1.80
2018-02-23T02:42:38.385Z,1.80
2018-02-23T02:45:06.546Z,1.80
2018-02-23T02:47:34.520Z,1.80
2018-02-23T02:50:02.700Z,1.80
2018-02-23T02:52:30.864Z,1.80
2018-02-23T02:54:59.046Z,1.80
2018-02-23T02:57:27.214Z,1.80
2018-02-23T02:59:55.406Z,1.80
2018-02-23T03:02:24.171Z,1.80
2018-02-23T03:04:52.242Z,1.80
2018-02-23T03:07:20.417Z,1.80
2018-02-23T03:09:48.485Z,1.80
2018-02-23T03:12:16.557Z,1.80
2018-02-23T03:14:51.106Z,1.80
2018-02-23T03:17:19.868Z,1.80
2018-02-23T03:19:48.052Z,1.80
2018-02-23T03:22:16.328Z,1.80
2018-02-23T03:24:44.503Z,1.80
2018-02-23T03:27:12.778Z,1.80
2018-02-23T03:29:41.350Z,1.80
2018-02-23T03:32:09.424Z,1.80
2018-02-23T03:34:37.492Z,1.90
2018-02-23T03:37:06.381Z,1.90
2018-02-23T03:39:34.452Z,1.90
2018-02-23T03:42:02.638Z,1.90
2018-02-23T03:44:30.802Z,1.90
2018-02-23T03:46:58.984Z,1.90
2018-02-23T03:49:27.152Z,1.90
2018-02-23T03:51:55.331Z,1.90
2018-02-23T03:54:23.495Z,1.90
2018-02-23T03:56:52.394Z,1.90
2018-02-23T03:59:20.455Z,1.90
2018-02-23T04:01:48.524Z,1.90
2018-02-23T04:04:16.712Z,1.90
2018-02-23T04:06:44.883Z,1.80
2018-02-23T04:09:12.799Z,1.80
2018-02-23T04:11:40.911Z,1.80
2018-02-23T04:14:08.995Z,1.80
2018-02-23T04:16:37.167Z,1.80
2018-02-23T04:19:05.227Z,1.80
2018-02-23T04:21:34.116Z,1.80
2018-02-23T04:24:02.291Z,1.80
2018-02-23T04:26:30.476Z,1.80
2018-02-23T04:28:58.651Z,1.80
2018-02-23T04:31:26.825Z,1.80
2018-02-23T04:33:54.997Z,1.70
2018-02-23T04:36:23.040Z,1.70
2018-02-23T04:38:51.027Z,1.70
2018-02-23T04:41:19.208Z,1.70
2018-02-23T04:43:47.383Z,1.70
2018-02-23T04:46:15.344Z,1.70
2018-02-23T04:48:43.506Z,1.70
2018-02-23T04:51:11.585Z,1.70
2018-02-23T04:53:39.656Z,1.70
2018-02-23T04:56:08.049Z,1.70
2018-02-23T04:58:36.322Z,1.70
2018-02-23T05:01:04.500Z,1.70
2018-02-23T05:03:32.657Z,1.70
2018-02-23T05:06:01.551Z,1.70
2018-02-23T05:08:29.618Z,1.70
2018-02-23T05:10:57.692Z,1.70
2018-02-23T05:13:25.762Z,1.70
2018-02-23T05:15:53.833Z,1.70
2018-02-23T05:18:21.903Z,1.70
2018-02-23T05:20:50.079Z,1.70
2018-02-23T05:23:18.252Z,1.70
2018-02-23T05:25:46.320Z,1.70
2018-02-23T05:28:14.390Z,1.80
2018-02-23T05:30:42.463Z,1.80
2018-02-23T05:33:10.638Z,1.80
2018-02-23T05:35:38.711Z,1.80
2018-02-23T05:38:06.778Z,1.90
2018-02-23T05:40:35.328Z,1.90
2018-02-23T05:43:03.444Z,1.90
2018-02-23T05:45:31.503Z,2.00
2018-02-23T05:47:59.679Z,2.00
2018-02-23T05:50:27.853Z,2.00
2018-02-23T05:52:56.146Z,2.00
2018-02-23T05:55:25.021Z,2.00
2018-02-23T05:57:53.005Z,2.00
2018-02-23T06:00:21.055Z,2.00
2018-02-23T06:02:49.957Z,2.00
2018-02-23T06:05:18.017Z,2.00
2018-02-23T06:07:46.193Z,2.00
2018-02-23T06:10:14.730Z,2.00
2018-02-23T06:12:42.706Z,2.00
2018-02-23T06:15:10.824Z,2.00
2018-02-23T06:17:44.392Z,2.00
2018-02-23T06:20:12.600Z,2.00
2018-02-23T06:22:40.662Z,2.00
2018-02-23T06:25:08.831Z,2.00
2018-02-23T06:27:36.902Z,2.00
2018-02-23T06:30:04.982Z,2.00
2018-02-23T06:32:33.262Z,2.00
2018-02-23T06:35:01.436Z,2.00
2018-02-23T06:37:30.314Z,2.00
2018-02-23T06:39:58.385Z,2.00
2018-02-23T06:42:26.456Z,2.00
2018-02-23T06:44:54.637Z,2.00
2018-02-23T06:47:22.700Z,1.90
2018-02-23T06:49:50.879Z,2.00
2018-02-23T06:52:18.945Z,2.00
2018-02-23T06:54:47.123Z,2.00
2018-02-23T06:57:15.307Z,2.00
2018-02-23T06:59:43.477Z,2.00
2018-02-23T07:02:12.971Z,2.00
2018-02-23T07:04:41.168Z,2.00
2018-02-23T07:07:10.046Z,2.00
2018-02-23T07:09:38.207Z,2.00
2018-02-23T07:12:06.278Z,2.00
2018-02-23T07:14:34.964Z,2.00
2018-02-23T07:17:03.037Z,2.00
2018-02-23T07:19:31.920Z,2.00
2018-02-23T07:22:00.001Z,2.00
2018-02-23T07:24:28.796Z,2.00
2018-02-23T07:26:56.856Z,2.00
2018-02-23T07:29:24.939Z,2.00
2018-02-23T07:31:52.907Z,2.00
2018-02-23T07:34:21.071Z,2.00
2018-02-23T07:36:49.141Z,2.00
2018-02-23T07:39:17.211Z,2.00
2018-02-23T07:41:45.294Z,2.00
2018-02-23T07:44:13.467Z,2.00
2018-02-23T07:46:41.527Z,2.00
2018-02-23T07:49:09.604Z,2.00
2018-02-23T07:51:37.668Z,2.00
2018-02-23T07:54:05.855Z,2.00
2018-02-23T07:56:34.018Z,2.00
2018-02-23T07:59:02.193Z,2.00
2018-02-23T08:01:30.364Z,2.00
2018-02-23T08:03:59.162Z,2.00
2018-02-23T08:06:27.338Z,2.00
2018-02-23T08:08:55.509Z,2.10
2018-02-23T08:11:23.784Z,2.10
2018-02-23T08:13:51.948Z,2.10
2018-02-23T08:16:20.016Z,2.10
2018-02-23T08:18:48.090Z,2.20
2018-02-23T08:21:16.159Z,2.20
2018-02-23T08:23:44.236Z,2.20
2018-02-23T08:26:12.402Z,2.20
2018-02-23T08:28:40.479Z,2.20
2018-02-23T08:31:08.545Z,2.20
2018-02-23T08:33:36.620Z,2.20
2018-02-23T08:36:05.622Z,2.20
2018-02-23T08:38:33.786Z,2.30
2018-02-23T08:41:01.752Z,2.30
2018-02-23T08:43:30.851Z,2.20
2018-02-23T08:45:59.033Z,2.30
2018-02-23T08:48:27.092Z,2.30
2018-02-23T08:50:55.162Z,2.30
2018-02-23T08:53:23.247Z,2.30
2018-02-23T08:55:51.304Z,2.30
2018-02-23T08:58:19.382Z,2.30
2018-02-23T09:00:48.575Z,2.30
2018-02-23T09:03:17.667Z,2.30
2018-02-23T09:05:45.636Z,2.30
2018-02-23T09:08:13.709Z,2.40
2018-02-23T09:10:41.778Z,2.40
2018-02-23T09:13:09.957Z,2.40
2018-02-23T09:15:38.137Z,2.40
2018-02-23T09:18:06.196Z,2.40
2018-02-23T09:20:34.280Z,2.40
2018-02-23T09:23:02.447Z,2.40
2018-02-23T09:25:30.619Z,2.40
2018-02-23T09:27:58.583Z,2.40
2018-02-23T09:30:26.756Z,2.40
2018-02-23T09:32:57.911Z,2.40
2018-02-23T09:35:26.079Z,2.40
2018-02-23T09:37:54.149Z,2.40
2018-02-23T09:40:22.112Z,2.40
2018-02-23T09:42:50.189Z,2.30
2018-02-23T09:45:18.370Z,2.40
2018-02-23T09:47:46.433Z,2.40
2018-02-23T09:50:15.171Z,2.40
2018-02-23T09:52:44.003Z,2.30
2018-02-23T09:55:12.182Z,2.30
2018-02-23T09:57:41.275Z,2.30
2018-02-23T10:00:09.461Z,2.30
2018-02-23T10:02:37.626Z,2.30
2018-02-23T10:05:05.805Z,2.30
2018-02-23T10:07:33.867Z,2.30
2018-02-23T10:10:01.938Z,2.30
2018-02-23T10:12:30.222Z,2.30
2018-02-23T10:14:58.389Z,2.30
2018-02-23T10:17:26.457Z,2.30
2018-02-23T10:19:55.345Z,2.30
2018-02-23T10:22:23.315Z,2.30
2018-02-23T10:24:51.500Z,2.30
2018-02-23T10:27:19.559Z,2.20
2018-02-23T10:29:47.629Z,2.30
2018-02-23T10:32:16.627Z,2.30
2018-02-23T10:34:44.809Z,2.30
2018-02-23T10:37:12.767Z,2.30
2018-02-23T10:39:40.949Z,2.30
2018-02-23T10:42:09.119Z,2.30
2018-02-23T10:44:38.014Z,2.40
2018-02-23T10:47:06.290Z,2.40
2018-02-23T10:49:34.348Z,2.40
2018-02-23T10:52:02.420Z,2.40
2018-02-23T10:54:30.495Z,2.40
2018-02-23T10:56:58.779Z,2.40
2018-02-23T10:59:26.940Z,2.50
2018-02-23T11:01:55.119Z,2.50
2018-02-23T11:04:23.287Z,2.50
2018-02-23T11:06:51.472Z,2.50
2018-02-23T11:09:19.543Z,2.60
2018-02-23T11:11:47.607Z,2.60
2018-02-23T11:14:15.775Z,2.60
2018-02-23T11:16:43.745Z,2.60
2018-02-23T11:19:11.822Z,2.60
2018-02-23T11:21:39.887Z,2.70
2018-02-23T11:24:08.063Z,2.70
2018-02-23T11:26:36.135Z,2.80
2018-02-23T11:29:05.125Z,2.80
2018-02-23T11:31:33.309Z,2.80
2018-02-23T11:34:01.478Z,2.80
2018-02-23T11:36:29.439Z,2.80
2018-02-23T11:38:57.625Z,2.80
2018-02-23T11:41:25.685Z,2.80
2018-02-23T11:43:53.653Z,2.80
2018-02-23T11:46:21.621Z,2.80
2018-02-23T11:48:49.843Z,2.80
2018-02-23T11:51:18.688Z,2.70
2018-02-23T11:53:46.757Z,2.70
2018-02-23T11:56:14.942Z,2.80
2018-02-23T11:58:44.435Z,2.70
2018-02-23T12:01:12.613Z,2.70
2018-02-23T12:03:40.691Z,2.70
2018-02-23T12:06:08.852Z,2.70
2018-02-23T12:08:37.031Z,2.70
2018-02-23T12:11:05.097Z,2.70
2018-02-23T12:13:33.168Z,2.60
2018-02-23T12:16:01.139Z,2.70
2018-02-23T12:18:29.104Z,2.70
2018-02-23T12:20:57.176Z,2.60
2018-02-23T12:23:25.146Z,2.60
2018-02-23T12:25:53.331Z,2.60
2018-02-23T12:28:21.524Z,2.60
2018-02-23T12:30:50.387Z,2.60
2018-02-23T12:33:18.670Z,2.60
2018-02-23T12:35:46.834Z,2.60
2018-02-23T12:38:15.020Z,2.60
2018-02-23T12:40:43.294Z,2.60
2018-02-23T12:43:11.460Z,2.60
2018-02-23T12:45:39.639Z,2.70
2018-02-23T12:48:07.702Z,2.60
2018-02-23T12:50:35.777Z,2.60
2018-02-23T12:53:03.956Z,2.60
2018-02-23T12:55:32.027Z,2.60
2018-02-23T12:58:00.877Z,2.70
2018-02-23T13:00:28.979Z,2.70
2018-02-23T13:02:57.155Z,2.70
2018-02-23T13:05:25.221Z,2.70
2018-02-23T13:07:53.292Z,2.70
2018-02-23T13:10:21.579Z,2.70
2018-02-23T13:12:49.753Z,2.70
2018-02-23T13:15:19.865Z,2.70
2018-02-23T13:17:47.841Z,2.80
2018-02-23T13:20:16.004Z,2.80
2018-02-23T13:22:44.078Z,2.80
2018-02-23T13:25:12.258Z,2.80
2018-02-23T13:27:40.420Z,2.80
2018-02-23T13:30:08.598Z,2.80
2018-02-23T13:32:36.788Z,2.90
2018-02-23T13:35:04.838Z,2.90
2018-02-23T13:37:33.016Z,2.90
2018-02-23T13:40:01.197Z,2.90
2018-02-23T13:42:30.075Z,2.90
2018-02-23T13:44:58.149Z,2.90
2018-02-23T13:47:26.433Z,2.90
2018-02-23T13:49:54.710Z,2.90
2018-02-23T13:52:22.883Z,2.90
2018-02-23T13:54:53.926Z,2.90
2018-02-23T13:57:21.983Z,2.90
2018-02-23T13:59:50.156Z,2.90
2018-02-23T14:02:18.334Z,2.90
2018-02-23T14:04:46.507Z,2.90
2018-02-23T14:07:20.213Z,2.90
2018-02-23T14:09:49.317Z,2.80
2018-02-23T14:12:18.095Z,2.80
2018-02-23T14:14:46.378Z,2.80
2018-02-23T14:17:14.540Z,2.80
2018-02-23T14:19:42.718Z,2.80
2018-02-23T14:22:10.788Z,2.80
2018-02-23T14:24:38.959Z,2.80
2018-02-23T14:27:07.132Z,2.80
2018-02-23T14:29:35.100Z,2.70
2018-02-23T14:32:03.219Z,2.70
2018-02-23T14:34:31.244Z,2.70
2018-02-23T14:36:59.529Z,2.70
2018-02-23T14:39:27.793Z,2.60
2018-02-23T14:41:55.972Z,2.60
2018-02-23T14:44:24.145Z,2.60
2018-02-23T14:46:52.318Z,2.60
2018-02-23T14:49:20.601Z,2.60
2018-02-23T14:51:48.762Z,2.50
2018-02-23T14:54:16.834Z,2.50
2018-02-23T14:56:45.011Z,2.50
2018-02-23T14:59:13.182Z,2.40
2018-02-23T15:01:41.368Z,2.40
2018-02-23T15:04:09.539Z,2.40
2018-02-23T15:06:39.140Z,2.30
2018-02-23T15:09:07.321Z,2.30
2018-02-23T15:11:35.495Z,2.40
2018-02-23T15:14:03.661Z,2.30
2018-02-23T15:16:32.343Z,2.30
2018-02-23T15:19:00.411Z,2.30
2018-02-23T15:21:28.590Z,2.30
2018-02-23T15:23:56.655Z,2.30
2018-02-23T15:26:24.834Z,2.30
2018-02-23T15:28:52.900Z,2.20
2018-02-23T15:31:32.964Z,2.20
2018-02-23T15:34:01.746Z,2.20
2018-02-23T15:36:29.929Z,2.10
2018-02-23T15:38:58.146Z,2.20
2018-02-23T15:41:26.265Z,2.10
2018-02-23T15:43:54.456Z,2.10
2018-02-23T15:46:23.333Z,2.10
2018-02-23T15:49:11.056Z,2.10
2018-02-23T15:51:53.979Z,2.10
2018-02-23T15:54:22.154Z,2.10
2018-02-23T15:56:50.326Z,2.00
2018-02-23T15:59:18.496Z,2.00
2018-02-23T16:01:46.681Z,2.00
2018-02-23T16:04:14.843Z,2.00
2018-02-23T16:06:43.133Z,2.00
2018-02-23T16:09:11.407Z,1.90
2018-02-23T16:11:39.683Z,1.90
2018-02-23T16:14:07.958Z,1.90
2018-02-23T16:16:36.132Z,1.90
2018-02-23T16:19:04.299Z,1.90
2018-02-23T16:21:32.377Z,1.90
2018-02-23T16:24:00.643Z,1.80
2018-02-23T16:26:29.329Z,1.80
2018-02-23T16:28:58.114Z,1.80
2018-02-23T16:31:26.300Z,1.80
2018-02-23T16:33:54.473Z,1.80
2018-02-23T16:36:22.534Z,1.70
2018-02-23T16:38:50.605Z,1.70
2018-02-23T16:41:18.777Z,1.70
2018-02-23T16:43:46.846Z,1.70
2018-02-23T16:46:15.025Z,1.70
2018-02-23T16:48:43.194Z,1.70
2018-02-23T16:51:11.266Z,1.60
2018-02-23T16:53:39.554Z,1.70
2018-02-23T16:56:07.828Z,1.70
2018-02-23T16:58:35.786Z,1.70
2018-02-23T17:01:03.966Z,1.60
2018-02-23T17:03:32.248Z,1.60
2018-02-23T17:06:01.033Z,1.60
2018-02-23T17:08:29.209Z,1.60
2018-02-23T17:10:57.483Z,1.60
2018-02-23T17:13:25.752Z,1.60
2018-02-23T17:15:53.920Z,1.60
2018-02-23T17:18:22.004Z,1.60
2018-02-23T17:20:50.063Z,1.60
2018-02-23T17:23:18.239Z,1.60
2018-02-23T17:25:47.276Z,1.60
2018-02-23T17:28:15.512Z,1.60
2018-02-23T17:30:43.576Z,1.60
2018-02-23T17:33:12.363Z,1.60
2018-02-23T17:35:40.492Z,1.60
2018-02-23T17:38:08.614Z,1.60
2018-02-23T17:40:36.679Z,1.60
2018-02-23T17:43:04.649Z,1.60
2018-02-23T17:45:32.725Z,1.60
2018-02-23T17:48:00.892Z,1.60
2018-02-23T17:50:29.067Z,1.60
2018-02-23T17:52:57.138Z,1.50
2018-02-23T17:55:25.528Z,1.60
2018-02-23T17:57:53.691Z,1.50
2018-02-23T18:00:21.868Z,1.60
2018-02-23T18:02:49.946Z,1.60
2018-02-23T18:05:18.111Z,1.60
2018-02-23T18:07:46.285Z,1.60
2018-02-23T18:10:14.454Z,1.60
2018-02-23T18:12:42.643Z,1.60
2018-02-23T18:15:10.702Z,1.60
2018-02-23T18:17:38.871Z,1.60
2018-02-23T18:20:06.775Z,1.60
2018-02-23T18:22:35.634Z,1.60
2018-02-23T18:25:05.236Z,1.60
2018-02-23T18:27:33.413Z,1.60
2018-02-23T18:30:01.583Z,1.60
2018-02-23T18:32:29.768Z,1.60
2018-02-23T18:34:57.930Z,1.60
2018-02-23T18:37:26.103Z,1.60
2018-02-23T18:39:54.587Z,1.60
2018-02-23T18:42:22.653Z,1.60
2018-02-23T18:44:50.730Z,1.60
2018-02-23T18:47:18.898Z,1.60
2018-02-23T18:49:47.188Z,1.60
2018-02-23T18:52:15.363Z,1.60
2018-02-23T18:54:44.241Z,1.60
2018-02-23T18:57:13.300Z,1.60
2018-02-23T18:59:42.227Z,1.60
2018-02-23T19:02:10.400Z,1.60
2018-02-23T19:04:38.471Z,1.60
2018-02-23T19:07:06.747Z,1.60
2018-02-23T19:09:35.333Z,1.60
2018-02-23T19:12:04.014Z,1.60
2018-02-23T19:14:32.190Z,1.60
2018-02-23T19:17:00.473Z,1.60
2018-02-23T19:19:28.635Z,1.60
2018-02-23T19:21:56.706Z,1.60
2018-02-23T19:24:24.883Z,1.70
2018-02-23T19:26:53.057Z,1.70
2018-02-23T19:29:21.847Z,1.70
2018-02-23T19:36:58.665Z,1.70
2018-02-23T19:39:26.585Z,1.60
2018-02-23T19:41:54.891Z,1.70
2018-02-23T19:44:35.778Z,1.70
2018-02-23T19:49:37.438Z,1.70
2018-02-23T19:52:05.575Z,1.70
2018-02-23T19:54:33.693Z,1.70
2018-02-23T19:57:01.961Z,1.80
2018-02-23T19:59:30.245Z,1.80
2018-02-23T20:02:14.238Z,1.80
2018-02-23T20:04:42.249Z,1.80
2018-02-23T20:07:13.289Z,1.80
2018-02-23T20:09:41.371Z,1.80
2018-02-23T20:12:18.761Z,1.80
2018-02-23T20:14:46.928Z,1.90
2018-02-23T20:17:15.101Z,1.90
2018-02-23T20:19:43.269Z,1.90
2018-02-23T20:22:11.448Z,1.90
2018-02-23T20:24:39.515Z,1.90
2018-02-23T20:27:07.690Z,1.90
2018-02-23T20:29:36.589Z,1.90
2018-02-23T20:32:04.764Z,1.90
2018-02-23T20:34:43.779Z,1.90
2018-02-23T20:37:11.955Z,1.90
2018-02-23T20:39:40.036Z,1.90
2018-02-23T20:42:23.151Z,2.00
2018-02-23T20:44:51.429Z,2.00
2018-02-23T20:47:21.409Z,2.00
2018-02-23T20:49:49.618Z,2.00
2018-02-23T20:52:23.757Z,2.00
2018-02-23T20:57:33.899Z,2.00
2018-02-23T21:00:05.406Z,2.00
2018-02-23T21:02:33.526Z,2.00
2018-02-23T21:05:01.808Z,2.00
2018-02-23T21:07:29.975Z,2.00
2018-02-23T21:09:58.147Z,2.00
2018-02-23T21:12:26.329Z,2.00
2018-02-23T21:14:54.286Z,2.00
2018-02-23T21:17:22.254Z,2.00
2018-02-23T21:19:50.952Z,2.00
2018-02-23T21:22:18.911Z,2.00
2018-02-23T21:24:47.084Z,2.00
2018-02-23T21:27:15.369Z,2.00
2018-02-23T21:29:43.470Z,2.00
2018-02-23T21:32:12.323Z,2.00
2018-02-23T21:34:40.396Z,2.00
2018-02-23T21:37:08.568Z,2.00
2018-02-23T21:39:36.646Z,2.00
2018-02-23T21:42:04.823Z,2.00
2018-02-23T21:44:50.594Z,2.00
2018-02-23T21:47:18.976Z,2.00
2018-02-23T21:49:47.057Z,2.00
2018-02-23T21:52:15.323Z,2.00
2018-02-23T21:54:43.391Z,2.00
2018-02-23T21:57:11.463Z,2.00
2018-02-23T21:59:40.352Z,2.00
2018-02-23T22:02:08.640Z,1.90
2018-02-23T22:04:36.704Z,2.00
2018-02-23T22:07:04.770Z,1.90
2018-02-23T22:09:32.738Z,2.00
2018-02-23T22:12:00.814Z,2.00
2018-02-23T22:14:29.202Z,2.00
2018-02-23T22:16:57.475Z,2.00
2018-02-23T22:19:25.649Z,2.00
2018-02-23T22:21:53.824Z,2.00
2018-02-23T22:24:22.502Z,2.00
2018-02-23T22:26:50.573Z,2.00
2018-02-23T22:29:19.458Z,2.00
2018-02-23T22:31:47.746Z,2.00
2018-02-23T22:34:15.918Z,2.00
2018-02-23T22:36:44.195Z,2.00
2018-02-23T22:39:12.200Z,2.00
2018-02-23T22:41:40.222Z,2.00
2018-02-23T22:44:08.297Z,2.00
2018-02-23T22:46:36.377Z,2.00
2018-02-23T22:49:04.435Z,2.00
2018-02-23T22:51:32.567Z,2.00
2018-02-23T22:54:00.684Z,2.00
2018-02-23T22:56:30.292Z,2.00
2018-02-23T22:58:58.371Z,2.00
2018-02-23T23:01:26.538Z,2.00
2018-02-23T23:03:54.718Z,2.00
2018-02-23T23:06:22.753Z,2.00
2018-02-23T23:08:50.963Z,2.00
2018-02-23T23:11:19.124Z,2.00
2018-02-23T23:13:47.091Z,2.00
2018-02-23T23:16:15.270Z,2.00
2018-02-23T23:18:43.336Z,2.00
2018-02-23T23:21:11.407Z,2.00
2018-02-23T23:23:39.376Z,2.00
2018-02-23T23:26:07.451Z,2.00
2018-02-23T23:28:35.633Z,2.10
2018-02-23T23:31:03.697Z,2.10
2018-02-23T23:33:31.763Z,2.10
2018-02-23T23:35:59.837Z,2.10
2018-02-23T23:38:28.009Z,2.10
2018-02-23T23:40:56.083Z,2.20
2018-02-23T23:43:24.253Z,2.10
2018-02-23T23:45:53.352Z,2.10
2018-02-23T23:48:21.270Z,2.20
2018-02-23T23:50:49.285Z,2.20
2018-02-23T23:53:18.189Z,2.20
2018-02-23T23:55:46.247Z,2.20
2018-02-23T23:58:14.421Z,2.20
